Time;durP1;ratioP1;P1;durP2;ratioP2;P2;SDS_P1;SDS_P2;PMS_P1;PMS_P2;Temp;Humidity;BMP_temperature;BMP_pressure;BME280_temperature;BME280_humidity;BME280_pressure;Samples;Min_cycle;Max_cycle;Signal;HPM_P1;HPM_P2
2022/09/20 00:00:21;;;;;;;0.90;0.63;;;18.90;48.80;;;;;;4887986;29;20292;-39
2022/09/20 00:02:52;;;;;;;1.35;0.65;;;19.00;49.40;;;;;;4895724;29;20658;-48
2022/09/20 00:05:22;;;;;;;1.75;0.57;;;19.00;48.90;;;;;;4896761;29;20668;-47
2022/09/20 00:07:53;;;;;;;0.88;0.47;;;19.00;48.80;;;;;;4896395;29;20229;-38
2022/09/20 00:10:24;;;;;;;0.65;0.55;;;19.10;48.70;;;;;;4889349;29;20202;-39
2022/09/20 00:12:55;;;;;;;0.57;0.52;;;19.10;48.70;;;;;;4879469;29;20201;-43
2022/09/20 00:15:27;;;;;;;0.50;0.50;;;19.10;48.60;;;;;;4887086;29;20197;-44
2022/09/20 00:17:58;;;;;;;0.95;0.40;;;19.20;48.50;;;;;;4895938;29;20232;-38
2022/09/20 00:20:29;;;;;;;0.45;0.43;;;19.20;48.30;;;;;;4895555;29;20208;-41
2022/09/20 00:22:59;;;;;;;0.85;0.43;;;19.30;48.20;;;;;;4896844;29;20216;-42
2022/09/20 00:25:30;;;;;;;0.73;0.55;;;19.30;48.10;;;;;;4896770;29;20201;-38
2022/09/20 00:28:01;;;;;;;1.15;0.50;;;19.30;48.00;;;;;;4896753;29;20272;-43
2022/09/20 00:30:35;;;;;;;1.00;0.45;;;19.40;47.90;;;;;;4888722;29;20202;-47
2022/09/20 00:33:05;;;;;;;0.88;0.40;;;19.40;47.80;;;;;;4877826;29;20755;-45
2022/09/20 00:35:35;;;;;;;0.77;0.38;;;19.40;47.70;;;;;;4886666;29;20227;-38
2022/09/20 00:38:05;;;;;;;1.95;0.55;;;19.40;47.50;;;;;;4893497;29;20225;-37
2022/09/20 00:40:36;;;;;;;2.20;0.40;;;19.50;47.60;;;;;;4878562;29;20209;-42
2022/09/20 00:43:07;;;;;;;0.60;0.40;;;19.50;47.60;;;;;;4877386;29;20578;-36
2022/09/20 00:45:39;;;;;;;1.25;0.35;;;19.50;47.60;;;;;;4886934;29;20197;-37
2022/09/20 00:48:17;;;;;;;2.05;0.80;;;19.60;47.60;;;;;;4895725;29;20233;-35
2022/09/20 00:50:50;;;;;;;1.02;0.50;;;19.60;47.60;;;;;;4896598;29;20197;-36
2022/09/20 00:53:25;;;;;;;0.70;0.50;;;19.70;47.50;;;;;;4895937;29;20208;-35
2022/09/20 00:55:59;;;;;;;0.70;0.40;;;19.60;47.40;;;;;;4887354;29;20194;-35
2022/09/20 00:58:32;;;;;;;0.47;0.47;;;19.70;47.40;;;;;;4877147;29;20221;-37
2022/09/20 01:01:06;;;;;;;0.40;0.40;;;19.70;47.40;;;;;;4889017;29;20200;-38
2022/09/20 01:03:39;;;;;;;0.32;0.30;;;19.70;47.50;;;;;;4895870;29;20207;-35
2022/09/20 01:06:14;;;;;;;0.65;0.60;;;19.80;47.50;;;;;;4895600;29;20201;-39
2022/09/20 01:08:48;;;;;;;0.98;0.40;;;19.80;47.60;;;;;;4894431;29;20232;-45
2022/09/20 01:11:18;;;;;;;1.10;0.40;;;19.80;47.60;;;;;;4894972;29;20215;-48
2022/09/20 01:13:49;;;;;;;1.77;0.47;;;19.80;47.60;;;;;;4895859;29;20200;-36
2022/09/20 01:16:22;;;;;;;0.98;0.60;;;19.80;47.50;;;;;;4894988;29;20200;-43
2022/09/20 01:18:54;;;;;;;1.42;0.43;;;19.80;47.40;;;;;;4895609;29;20244;-36
2022/09/20 01:21:25;;;;;;;0.77;0.40;;;19.90;47.30;;;;;;4895283;29;20207;-46
2022/09/20 01:24:03;;;;;;;0.45;0.40;;;19.90;47.20;;;;;;4895109;29;20201;-35
2022/09/20 01:26:52;;;;;;;0.98;0.52;;;19.90;47.10;;;;;;4895212;29;20211;-35
2022/09/20 01:29:38;;;;;;;1.13;0.40;;;20.00;47.10;;;;;;4895793;29;20268;-39
2022/09/20 01:32:14;;;;;;;2.10;0.65;;;20.00;46.80;;;;;;4894348;29;20209;-48
2022/09/20 01:34:49;;;;;;;0.55;0.40;;;20.00;46.90;;;;;;4895249;29;20192;-40
2022/09/20 01:37:25;;;;;;;2.33;0.57;;;20.10;46.80;;;;;;4882517;29;20225;-43
2022/09/20 01:40:05;;;;;;;0.75;0.40;;;20.10;46.70;;;;;;4877932;29;20224;-46
2022/09/20 01:42:38;;;;;;;0.60;0.57;;;20.10;46.60;;;;;;4894593;29;20205;-36
2022/09/20 01:45:17;;;;;;;1.33;0.40;;;20.10;46.60;;;;;;4894820;29;20920;-42
2022/09/20 01:47:52;;;;;;;1.20;0.50;;;20.20;46.60;;;;;;4895080;29;20243;-42
2022/09/20 01:50:35;;;;;;;0.52;0.40;;;20.20;46.60;;;;;;4894973;29;20227;-36
2022/09/20 01:53:39;;;;;;;1.02;0.40;;;20.20;46.70;;;;;;4895337;29;20419;-42
2022/09/20 01:56:44;;;;;;;0.68;0.40;;;20.20;46.80;;;;;;4894528;29;20673;-41
2022/09/20 01:59:47;;;;;;;0.88;0.55;;;20.30;46.90;;;;;;4888387;29;20204;-51
2022/09/20 02:03:04;;;;;;;1.83;0.60;;;20.30;46.90;;;;;;4897854;29;20209;-50
2022/09/20 02:06:23;;;;;;;1.23;0.60;;;20.30;46.90;;;;;;4865653;29;20197;-50
2022/09/20 02:09:21;;;;;;;1.95;0.60;;;20.30;46.80;;;;;;4822761;29;20732;-45
2022/09/20 02:12:12;;;;;;;1.52;0.52;;;20.30;47.30;;;;;;4836701;29;20317;-35
2022/09/20 02:14:54;;;;;;;1.45;0.50;;;20.30;46.70;;;;;;4889229;29;20213;-40
2022/09/20 02:17:35;;;;;;;0.65;0.50;;;20.40;46.90;;;;;;4898569;29;20696;-43
2022/09/20 02:20:24;;;;;;;2.17;0.40;;;20.40;47.00;;;;;;4899118;29;20216;-49
2022/09/20 02:23:13;;;;;;;1.42;0.60;;;20.40;47.10;;;;;;4898506;29;20208;-41
2022/09/20 02:26:12;;;;;;;1.08;0.60;;;20.40;47.10;;;;;;4897632;29;20748;-40
2022/09/20 02:28:57;;;;;;;0.50;0.50;;;20.50;47.10;;;;;;4898573;29;20237;-41
2022/09/20 02:31:57;;;;;;;1.13;0.52;;;20.50;47.10;;;;;;4898710;29;20231;-51
2022/09/20 02:34:52;;;;;;;0.45;0.40;;;20.50;47.30;;;;;;4898081;29;20574;-41
2022/09/20 02:37:59;;;;;;;0.68;0.50;;;20.50;47.30;;;;;;4882433;29;20221;-47
2022/09/20 02:40:53;;;;;;;0.80;0.60;;;20.50;47.30;;;;;;4874296;29;20604;-50
2022/09/20 02:43:35;;;;;;;0.47;0.45;;;20.60;47.40;;;;;;4866398;29;20197;-38
2022/09/20 02:46:14;;;;;;;0.75;0.60;;;20.60;47.50;;;;;;4873628;29;20282;-40
2022/09/20 02:48:50;;;;;;;1.63;0.50;;;20.60;47.50;;;;;;4875585;29;20725;-41
2022/09/20 02:51:29;;;;;;;0.85;0.50;;;20.60;47.50;;;;;;4887402;29;20205;-49
2022/09/20 02:54:13;;;;;;;0.80;0.50;;;20.60;47.40;;;;;;4897578;29;20212;-41
2022/09/20 02:56:53;;;;;;;0.70;0.50;;;20.60;47.30;;;;;;4893782;29;20250;-52
2022/09/20 02:59:35;;;;;;;1.30;0.50;;;20.70;47.30;;;;;;4897810;29;20201;-54
2022/09/20 03:02:14;;;;;;;1.50;0.40;;;20.70;47.20;;;;;;4897833;29;20649;-42
2022/09/20 03:05:03;;;;;;;0.40;0.40;;;20.70;47.30;;;;;;4898496;29;20205;-51
2022/09/20 03:07:50;;;;;;;0.60;0.45;;;20.70;47.40;;;;;;4897599;29;20247;-42
2022/09/20 03:10:29;;;;;;;1.05;0.50;;;20.70;47.40;;;;;;4891595;29;20236;-55
2022/09/20 03:13:15;;;;;;;0.63;0.30;;;20.70;47.30;;;;;;4895858;29;20196;-41
2022/09/20 03:15:58;;;;;;;0.73;0.45;;;20.70;47.30;;;;;;4887963;29;20212;-40
2022/09/20 03:18:41;;;;;;;0.70;0.40;;;20.80;47.20;;;;;;4897263;29;20225;-52
2022/09/20 03:21:25;;;;;;;0.45;0.30;;;20.80;47.10;;;;;;4897487;29;20204;-54
2022/09/20 03:24:08;;;;;;;0.70;0.40;;;20.80;47.10;;;;;;4897699;29;20200;-44
2022/09/20 03:26:55;;;;;;;0.77;0.50;;;20.80;46.80;;;;;;4897325;29;20204;-38
2022/09/20 03:29:39;;;;;;;0.93;0.28;;;20.80;46.80;;;;;;4896917;29;20232;-35
2022/09/20 03:32:24;;;;;;;0.73;0.55;;;20.90;46.70;;;;;;4896425;29;20749;-43
2022/09/20 03:35:08;;;;;;;0.98;0.35;;;20.90;46.60;;;;;;4896726;29;20201;-44
2022/09/20 03:37:57;;;;;;;0.95;0.45;;;21.00;46.60;;;;;;4897451;29;20217;-46
2022/09/20 03:40:57;;;;;;;0.50;0.45;;;21.00;46.70;;;;;;4883130;29;20212;-42
2022/09/20 03:43:43;;;;;;;1.33;0.40;;;21.00;46.80;;;;;;4863273;29;20215;-39
2022/09/20 03:46:20;;;;;;;0.40;0.30;;;21.00;46.70;;;;;;4897236;29;20676;-51
2022/09/20 03:49:14;;;;;;;0.68;0.40;;;21.10;46.90;;;;;;4896886;29;20232;-42
2022/09/20 03:51:56;;;;;;;0.47;0.40;;;21.10;46.80;;;;;;4896473;29;20197;-37
2022/09/20 03:55:08;;;;;;;1.42;0.50;;;21.10;46.90;;;;;;4896411;29;20205;-36
2022/09/20 03:57:52;;;;;;;0.50;0.30;;;21.10;47.00;;;;;;4888862;29;20219;-50
2022/09/20 04:00:45;;;;;;;1.45;0.40;;;21.10;46.90;;;;;;4897491;29;20208;-51
2022/09/20 04:03:38;;;;;;;0.73;0.45;;;21.10;46.90;;;;;;4896702;29;20657;-51
2022/09/20 04:06:44;;;;;;;1.30;0.28;;;21.10;47.00;;;;;;4896678;29;20200;-50
2022/09/20 04:09:36;;;;;;;0.52;0.20;;;21.10;47.10;;;;;;4888889;29;20233;-36
2022/09/20 04:12:16;;;;;;;0.22;0.22;;;21.10;47.00;;;;;;4892503;29;20200;-40
2022/09/20 04:14:55;;;;;;;1.00;0.50;;;21.10;46.90;;;;;;4894900;29;20653;-43
2022/09/20 04:17:37;;;;;;;0.65;0.20;;;21.10;46.90;;;;;;4895664;29;20221;-38
2022/09/20 04:20:17;;;;;;;1.27;0.30;;;21.10;46.90;;;;;;4872459;29;20719;-41
2022/09/20 04:22:49;;;;;;;1.23;0.30;;;21.10;46.70;;;;;;4877463;29;20208;-39
2022/09/20 04:25:22;;;;;;;0.30;0.20;;;21.10;46.60;;;;;;4869087;29;20261;-49
2022/09/20 04:27:56;;;;;;;2.05;0.40;;;21.10;46.80;;;;;;4876881;29;20229;-51
2022/09/20 04:30:29;;;;;;;0.80;0.20;;;21.10;46.90;;;;;;4895348;29;20240;-42
2022/09/20 04:33:05;;;;;;;0.17;0.17;;;21.10;46.80;;;;;;4895668;29;20215;-47
2022/09/20 04:38:32;;;;;;;0.40;0.20;;;21.10;46.60;;;;;;4882333;29;20240;-40
2022/09/20 04:41:20;;;;;;;0.45;0.30;;;21.10;46.80;;;;;;4883838;29;20680;-50
2022/09/20 04:44:20;;;;;;;0.40;0.20;;;21.10;46.80;;;;;;4883670;29;20228;-51
2022/09/20 04:47:37;;;;;;;0.22;0.20;;;21.10;46.70;;;;;;4895935;29;20260;-51
2022/09/20 04:50:43;;;;;;;0.25;0.20;;;21.10;46.50;;;;;;4896266;29;20740;-53
2022/09/20 04:53:59;;;;;;;0.73;0.30;;;21.10;46.10;;;;;;4896326;29;20216;-48
2022/09/20 04:56:42;;;;;;;1.08;0.40;;;21.10;45.80;;;;;;4883319;29;20578;-42
2022/09/20 04:59:23;;;;;;;0.32;0.30;;;21.10;45.70;;;;;;4895090;29;20662;-43
2022/09/20 05:02:30;;;;;;;0.40;0.40;;;21.10;46.10;;;;;;4858557;29;20221;-43
2022/09/20 05:05:38;;;;;;;0.30;0.30;;;21.10;46.10;;;;;;4887882;29;20197;-42
2022/09/20 05:08:42;;;;;;;0.30;0.22;;;21.10;46.10;;;;;;4895750;29;20220;-45
2022/09/20 05:11:38;;;;;;;0.65;0.40;;;21.10;46.10;;;;;;4860738;29;20217;-39
2022/09/20 05:14:38;;;;;;;0.25;0.25;;;21.10;45.90;;;;;;4881551;29;20684;-48
2022/09/20 05:17:34;;;;;;;0.45;0.30;;;21.10;45.80;;;;;;4895680;29;20217;-38
2022/09/20 05:20:27;;;;;;;1.75;0.20;;;21.10;45.80;;;;;;4895539;29;20205;-45
2022/09/20 05:23:29;;;;;;;0.20;0.20;;;21.20;46.10;;;;;;4895710;29;20201;-46
2022/09/20 05:26:16;;;;;;;0.28;0.20;;;21.20;46.10;;;;;;4853771;29;20232;-42
2022/09/20 05:28:57;;;;;;;0.52;0.30;;;21.20;45.70;;;;;;4865505;29;20900;-43
2022/09/20 05:31:37;;;;;;;0.30;0.30;;;21.20;45.90;;;;;;4895036;29;20209;-45
2022/09/20 05:34:18;;;;;;;1.25;0.20;;;21.20;46.00;;;;;;4895374;29;20248;-38
2022/09/20 05:36:57;;;;;;;0.30;0.25;;;21.20;46.10;;;;;;4898758;29;20196;-36
2022/09/20 05:39:38;;;;;;;0.80;0.30;;;21.20;46.20;;;;;;4899675;29;20228;-39
2022/09/20 05:42:19;;;;;;;1.27;0.50;;;21.20;46.20;;;;;;4862379;29;20209;-38
2022/09/20 05:45:18;;;;;;;0.60;0.30;;;21.30;46.10;;;;;;4884490;29;20612;-50
2022/09/20 05:47:56;;;;;;;1.33;0.30;;;21.30;46.20;;;;;;4899826;29;20263;-46
2022/09/20 05:50:39;;;;;;;0.30;0.30;;;21.30;46.20;;;;;;4889869;29;20580;-43
2022/09/20 05:53:33;;;;;;;3.40;0.30;;;21.30;46.10;;;;;;4880737;29;20223;-45
2022/09/20 05:56:15;;;;;;;0.35;0.35;;;21.30;46.10;;;;;;4879784;29;20209;-39
2022/09/20 05:59:05;;;;;;;1.00;0.35;;;21.30;46.00;;;;;;4882761;29;20253;-44
2022/09/20 06:01:41;;;;;;;0.20;0.20;;;21.30;46.10;;;;;;4899401;29;20209;-47
2022/09/20 06:04:20;;;;;;;0.47;0.30;;;21.30;46.30;;;;;;4898256;29;20252;-46
2022/09/20 06:06:59;;;;;;;0.15;0.10;;;21.30;46.30;;;;;;4899363;29;20556;-45
2022/09/20 06:09:52;;;;;;;0.30;0.30;;;21.30;46.50;;;;;;4897663;29;20217;-41
2022/09/20 06:12:38;;;;;;;1.13;0.30;;;21.30;46.60;;;;;;4879457;29;20431;-35
2022/09/20 06:15:19;;;;;;;0.20;0.20;;;21.30;46.70;;;;;;4884350;29;20201;-43
2022/09/20 06:17:59;;;;;;;0.40;0.22;;;21.30;46.70;;;;;;4879612;29;20217;-46
2022/09/20 06:20:35;;;;;;;1.02;0.20;;;21.30;46.70;;;;;;4893924;29;20286;-41
2022/09/20 06:23:07;;;;;;;0.32;0.32;;;21.30;46.70;;;;;;4899123;29;20693;-39
2022/09/20 06:25:44;;;;;;;0.20;0.20;;;21.30;46.70;;;;;;4898123;29;20204;-39
2022/09/20 06:28:19;;;;;;;0.40;0.28;;;21.30;46.60;;;;;;4898587;29;20235;-43
2022/09/20 06:30:52;;;;;;;0.40;0.20;;;21.20;46.60;;;;;;4892614;29;20761;-43
2022/09/20 06:33:24;;;;;;;0.52;0.25;;;21.20;46.70;;;;;;4879235;29;20206;-50
2022/09/20 06:41:25;;;;;;;0.73;0.20;;;21.20;46.80;;;;;;4896494;29;20288;-54
2022/09/20 06:41:46;;;;;;;0.20;0.20;;;21.20;46.90;;;;;;4879822;29;20209;-51
2022/09/20 06:44:19;;;;;;;0.20;0.20;;;21.20;47.00;;;;;;4883561;29;20197;-44
2022/09/20 06:46:52;;;;;;;0.10;0.10;;;21.20;47.00;;;;;;4897933;29;20219;-51
2022/09/20 06:49:23;;;;;;;0.98;0.40;;;21.20;47.00;;;;;;4897970;29;20200;-43
2022/09/20 06:51:54;;;;;;;0.60;0.30;;;21.10;46.90;;;;;;4898548;29;20205;-45
2022/09/20 06:54:25;;;;;;;1.98;0.30;;;21.10;46.90;;;;;;4897817;29;20660;-43
2022/09/20 06:56:56;;;;;;;1.38;0.30;;;21.10;46.90;;;;;;4897888;29;20241;-46
2022/09/20 06:59:29;;;;;;;0.82;0.20;;;21.10;47.00;;;;;;4897021;29;20560;-45
2022/09/20 07:01:59;;;;;;;1.00;0.32;;;21.10;46.90;;;;;;4896886;29;20553;-40
2022/09/20 07:04:31;;;;;;;0.80;0.30;;;21.10;47.00;;;;;;4897120;29;20212;-43
2022/09/20 07:07:03;;;;;;;0.20;0.20;;;21.00;46.90;;;;;;4897182;29;20209;-51
2022/09/20 07:09:34;;;;;;;0.47;0.28;;;21.00;47.00;;;;;;4895183;29;20221;-36
2022/09/20 07:12:06;;;;;;;1.75;0.40;;;21.00;47.10;;;;;;4876644;29;20206;-40
2022/09/20 07:14:38;;;;;;;0.75;0.28;;;21.00;47.10;;;;;;4876290;29;20241;-38
2022/09/20 07:17:09;;;;;;;1.30;0.30;;;20.90;47.10;;;;;;4875964;29;20218;-44
2022/09/20 07:19:40;;;;;;;0.82;0.40;;;20.90;47.10;;;;;;4875709;29;20225;-50
2022/09/20 07:22:11;;;;;;;0.22;0.22;;;20.90;47.10;;;;;;4876356;29;20202;-44
2022/09/20 07:24:43;;;;;;;0.38;0.35;;;20.90;47.10;;;;;;4877108;29;20209;-37
2022/09/20 07:27:15;;;;;;;0.32;0.30;;;20.90;47.10;;;;;;4877484;29;20222;-40
2022/09/20 07:29:47;;;;;;;0.20;0.20;;;20.90;47.20;;;;;;4877921;29;20582;-37
2022/09/20 07:32:18;;;;;;;0.20;0.20;;;20.90;47.20;;;;;;4877299;29;20640;-39
2022/09/20 07:34:49;;;;;;;0.25;0.25;;;20.90;47.20;;;;;;4877685;29;20210;-41
2022/09/20 07:37:20;;;;;;;0.20;0.20;;;20.80;47.20;;;;;;4877617;29;20229;-37
2022/09/20 07:39:51;;;;;;;2.13;0.30;;;20.80;47.30;;;;;;4877423;29;20822;-43
2022/09/20 07:42:21;;;;;;;0.22;0.20;;;20.80;47.30;;;;;;4877430;29;20202;-35
2022/09/20 07:44:54;;;;;;;0.57;0.22;;;20.70;47.40;;;;;;4876861;29;20228;-41
2022/09/20 07:47:26;;;;;;;0.30;0.30;;;20.70;47.40;;;;;;4877482;29;20228;-36
2022/09/20 07:49:57;;;;;;;0.30;0.20;;;20.70;47.40;;;;;;4876948;29;20221;-42
2022/09/20 07:52:27;;;;;;;0.60;0.28;;;20.70;47.50;;;;;;4877434;29;20224;-43
2022/09/20 07:54:58;;;;;;;0.20;0.20;;;20.70;47.50;;;;;;4877111;29;20202;-44
2022/09/20 07:57:29;;;;;;;0.10;0.10;;;20.70;47.50;;;;;;4876585;29;20221;-36
2022/09/20 08:00:01;;;;;;;0.40;0.20;;;20.70;47.50;;;;;;4876253;29;20209;-43
2022/09/20 08:02:32;;;;;;;0.35;0.20;;;20.60;47.40;;;;;;4873903;29;20206;-41
2022/09/20 08:05:03;;;;;;;0.15;0.15;;;20.60;47.50;;;;;;4868344;29;20205;-48
2022/09/20 08:07:34;;;;;;;0.20;0.20;;;20.60;47.50;;;;;;4877039;29;20301;-38
2022/09/20 08:10:05;;;;;;;0.13;0.10;;;20.60;47.60;;;;;;4876585;29;20391;-38
2022/09/20 08:12:36;;;;;;;0.20;0.20;;;20.50;47.60;;;;;;4877077;29;20209;-37
2022/09/20 08:15:09;;;;;;;0.10;0.10;;;20.50;47.60;;;;;;4876449;29;20202;-42
2022/09/20 08:17:40;;;;;;;0.20;0.20;;;20.50;47.70;;;;;;4878680;29;20217;-36
2022/09/20 08:20:11;;;;;;;0.28;0.10;;;20.50;47.70;;;;;;4876043;29;20205;-41
2022/09/20 08:22:42;;;;;;;0.40;0.30;;;20.50;47.70;;;;;;4876938;29;20208;-36
2022/09/20 08:25:12;;;;;;;0.20;0.20;;;20.50;47.70;;;;;;4876702;29;20265;-43
2022/09/20 08:27:43;;;;;;;1.23;0.30;;;20.40;47.70;;;;;;4876910;29;20221;-53
2022/09/20 08:30:16;;;;;;;0.30;0.30;;;20.40;47.80;;;;;;4876187;29;20876;-47
2022/09/20 08:32:46;;;;;;;0.60;0.30;;;20.40;47.90;;;;;;4875473;29;20736;-43
2022/09/20 08:35:17;;;;;;;0.30;0.30;;;20.40;47.90;;;;;;4876111;29;20206;-39
2022/09/20 08:37:52;;;;;;;0.20;0.20;;;20.40;47.90;;;;;;4876701;29;20226;-42
2022/09/20 08:40:24;;;;;;;1.10;0.30;;;20.30;47.90;;;;;;4876339;29;20205;-40
2022/09/20 08:42:55;;;;;;;0.40;0.40;;;20.30;47.90;;;;;;4876677;29;20233;-38
2022/09/20 08:45:29;;;;;;;0.40;0.32;;;20.30;47.90;;;;;;4876921;29;20245;-42
2022/09/20 08:48:04;;;;;;;0.40;0.30;;;20.30;48.00;;;;;;4876344;29;20229;-38
2022/09/20 08:50:35;;;;;;;1.52;0.40;;;20.20;47.90;;;;;;4875999;29;20264;-37
2022/09/20 08:53:06;;;;;;;0.20;0.20;;;20.20;47.90;;;;;;4865209;29;20214;-46
2022/09/20 08:55:40;;;;;;;0.40;0.30;;;20.20;48.00;;;;;;4875982;29;20789;-38
2022/09/20 08:58:13;;;;;;;0.85;0.40;;;20.20;48.00;;;;;;4876341;29;20269;-36
2022/09/20 09:00:47;;;;;;;0.50;0.30;;;20.20;48.10;;;;;;4876135;29;20289;-43
2022/09/20 09:03:19;;;;;;;0.45;0.35;;;20.20;48.20;;;;;;4875977;29;20233;-36
2022/09/20 09:05:50;;;;;;;0.32;0.32;;;20.10;48.20;;;;;;4876090;29;20702;-38
2022/09/20 09:08:25;;;;;;;0.30;0.30;;;20.10;48.30;;;;;;4876551;29;20217;-35
2022/09/20 09:10:58;;;;;;;0.63;0.40;;;20.10;49.00;;;;;;4874893;29;20236;-40
2022/09/20 09:13:33;;;;;;;0.40;0.40;;;20.00;48.40;;;;;;4876492;29;20212;-36
2022/09/20 09:16:13;;;;;;;0.40;0.40;;;20.00;48.40;;;;;;4876324;29;20200;-39
2022/09/20 09:18:46;;;;;;;0.50;0.30;;;20.00;48.50;;;;;;4876180;29;20304;-45
2022/09/20 09:21:21;;;;;;;0.50;0.50;;;20.00;48.50;;;;;;4875640;29;20689;-42
2022/09/20 09:23:59;;;;;;;0.40;0.40;;;20.00;48.50;;;;;;4869751;29;20698;-44
2022/09/20 09:26:36;;;;;;;1.33;0.40;;;20.00;48.50;;;;;;4871138;29;20202;-52
2022/09/20 09:29:18;;;;;;;0.28;0.28;;;19.90;48.50;;;;;;4885475;29;20217;-52
2022/09/20 09:31:53;;;;;;;0.43;0.32;;;19.90;48.70;;;;;;4877125;29;20245;-48
2022/09/20 09:34:28;;;;;;;0.50;0.50;;;19.90;48.80;;;;;;4887960;29;20278;-40
2022/09/20 09:37:00;;;;;;;0.80;0.40;;;19.90;48.70;;;;;;4891041;29;20208;-45
2022/09/20 09:39:36;;;;;;;0.47;0.45;;;19.90;48.80;;;;;;4883457;29;20872;-42
2022/09/20 09:42:23;;;;;;;0.40;0.40;;;19.80;48.80;;;;;;4876727;29;20261;-45
2022/09/20 09:44:54;;;;;;;0.30;0.30;;;19.80;48.80;;;;;;4891917;29;20608;-51
2022/09/20 09:47:30;;;;;;;0.40;0.40;;;19.80;48.90;;;;;;4895273;29;20591;-37
2022/09/20 09:50:01;;;;;;;0.73;0.40;;;19.70;48.90;;;;;;4895150;29;20192;-46
2022/09/20 09:52:32;;;;;;;0.38;0.38;;;19.70;48.90;;;;;;4879598;29;20201;-41
2022/09/20 09:55:06;;;;;;;0.60;0.50;;;19.70;48.90;;;;;;4892515;29;20201;-45
2022/09/20 09:57:47;;;;;;;0.30;0.30;;;19.70;48.90;;;;;;4895243;29;20221;-40
2022/09/20 10:00:19;;;;;;;0.70;0.50;;;19.70;48.90;;;;;;4895307;29;20197;-47
2022/09/20 10:03:14;;;;;;;0.40;0.40;;;19.70;48.90;;;;;;4895220;29;20654;-43
2022/09/20 10:05:55;;;;;;;0.93;0.50;;;19.60;48.90;;;;;;4857947;29;20710;-52
2022/09/20 10:08:38;;;;;;;0.93;0.45;;;19.60;48.90;;;;;;4863049;29;20238;-44
2022/09/20 10:11:21;;;;;;;0.30;0.30;;;19.60;49.00;;;;;;4882106;29;20241;-45
2022/09/20 10:14:02;;;;;;;0.77;0.40;;;19.50;49.00;;;;;;4882331;29;20582;-46
2022/09/20 10:16:41;;;;;;;0.60;0.40;;;19.50;49.10;;;;;;4871058;29;20202;-53
2022/09/20 10:19:24;;;;;;;0.55;0.40;;;19.50;49.20;;;;;;4876332;29;20205;-50
2022/09/20 10:22:03;;;;;;;0.40;0.40;;;19.40;49.20;;;;;;4896843;29;20729;-38
2022/09/20 10:24:45;;;;;;;0.30;0.30;;;19.40;49.10;;;;;;4894918;29;20189;-47
2022/09/20 10:27:33;;;;;;;0.40;0.40;;;19.40;49.10;;;;;;4879845;29;20221;-47
2022/09/20 10:30:12;;;;;;;0.40;0.40;;;19.40;49.10;;;;;;4894379;29;20197;-41
2022/09/20 10:32:57;;;;;;;0.40;0.40;;;19.40;49.10;;;;;;4898995;29;20212;-49
2022/09/20 10:35:38;;;;;;;0.50;0.40;;;19.40;49.10;;;;;;4892288;29;20194;-40
2022/09/20 10:38:20;;;;;;;0.60;0.47;;;19.30;49.20;;;;;;4879770;29;20241;-36
2022/09/20 10:44:17;;;;;;;0.47;0.40;;;19.30;49.30;;;;;;4883564;29;20232;-46
2022/09/20 10:46:58;;;;;;;0.50;0.35;;;19.20;49.20;;;;;;4897981;29;20204;-41
2022/09/20 10:49:36;;;;;;;0.40;0.30;;;19.20;49.20;;;;;;4898522;29;20277;-38
2022/09/20 10:52:24;;;;;;;0.40;0.40;;;19.20;49.30;;;;;;4898504;29;20233;-54
2022/09/20 10:55:19;;;;;;;0.50;0.40;;;19.20;49.30;;;;;;4897601;29;20220;-45
2022/09/20 10:58:22;;;;;;;0.30;0.30;;;19.20;49.30;;;;;;4896974;29;20287;-42
2022/09/20 11:01:01;;;;;;;0.75;0.45;;;19.20;49.30;;;;;;4884617;29;20263;-37
2022/09/20 11:03:49;;;;;;;0.30;0.30;;;19.10;49.30;;;;;;4897164;29;20257;-53
2022/09/20 11:06:23;;;;;;;0.47;0.30;;;19.10;49.30;;;;;;4898775;29;20209;-43
2022/09/20 11:09:01;;;;;;;0.40;0.38;;;19.10;49.30;;;;;;4897939;29;20243;-41
2022/09/20 11:11:37;;;;;;;0.75;0.30;;;19.10;49.40;;;;;;4881796;29;20233;-36
2022/09/20 11:14:12;;;;;;;0.75;0.40;;;19.10;49.40;;;;;;4883606;29;20680;-52
2022/09/20 11:16:50;;;;;;;1.80;0.40;;;19.00;49.40;;;;;;4897603;29;20552;-37
2022/09/20 11:19:26;;;;;;;0.40;0.40;;;19.00;49.40;;;;;;4890220;29;20635;-38
2022/09/20 11:22:03;;;;;;;0.40;0.40;;;19.00;49.50;;;;;;4897628;29;20204;-38
2022/09/20 11:24:39;;;;;;;0.55;0.32;;;18.90;49.40;;;;;;4897196;29;20192;-39
2022/09/20 11:27:17;;;;;;;0.93;0.50;;;18.90;49.50;;;;;;4896768;29;20220;-43
2022/09/20 11:29:52;;;;;;;0.50;0.50;;;18.90;49.40;;;;;;4897203;29;20197;-40
2022/09/20 11:32:26;;;;;;;0.52;0.35;;;18.90;49.40;;;;;;4896028;29;20231;-36
2022/09/20 11:35:00;;;;;;;0.40;0.40;;;18.90;49.40;;;;;;4896803;29;20299;-47
2022/09/20 11:37:35;;;;;;;0.50;0.40;;;18.90;49.40;;;;;;4896726;29;20314;-42
2022/09/20 11:40:23;;;;;;;0.40;0.40;;;18.90;49.40;;;;;;4892283;29;20209;-37
2022/09/20 11:42:57;;;;;;;0.43;0.43;;;18.90;49.50;;;;;;4878497;29;20206;-39
2022/09/20 11:45:30;;;;;;;0.40;0.40;;;18.90;49.60;;;;;;4892029;29;20667;-42
2022/09/20 11:48:05;;;;;;;1.00;0.52;;;18.80;49.60;;;;;;4896299;29;20579;-40
2022/09/20 11:51:11;;;;;;;0.30;0.30;;;18.80;49.70;;;;;;4896471;29;20610;-52
2022/09/20 11:54:01;;;;;;;0.50;0.40;;;18.80;49.70;;;;;;4896780;29;20197;-56
2022/09/20 11:56:35;;;;;;;0.50;0.43;;;18.80;49.60;;;;;;4875546;29;20197;-55
2022/09/20 11:59:08;;;;;;;0.50;0.45;;;18.80;49.60;;;;;;4879813;29;20234;-44
2022/09/20 12:01:41;;;;;;;0.65;0.50;;;18.70;50.20;;;;;;4897152;29;20200;-40
2022/09/20 12:04:22;;;;;;;0.50;0.50;;;18.70;49.60;;;;;;4896421;29;20236;-50
2022/09/20 12:07:01;;;;;;;0.70;0.68;;;18.70;49.60;;;;;;4896980;29;20206;-53
2022/09/20 12:09:34;;;;;;;0.52;0.40;;;18.70;49.60;;;;;;4882435;29;20653;-54
2022/09/20 12:12:27;;;;;;;0.40;0.40;;;18.70;49.70;;;;;;4877691;29;20726;-47
2022/09/20 12:14:59;;;;;;;0.45;0.45;;;18.70;49.70;;;;;;4878671;29;20201;-50
2022/09/20 12:18:07;;;;;;;0.57;0.50;;;18.70;49.70;;;;;;4878357;29;20225;-48
2022/09/20 12:21:06;;;;;;;0.85;0.60;;;18.70;49.80;;;;;;4879605;29;20198;-48
2022/09/20 12:24:11;;;;;;;1.15;0.60;;;18.60;49.80;;;;;;4876522;29;20205;-46
2022/09/20 12:26:45;;;;;;;0.50;0.40;;;18.60;49.80;;;;;;4873040;29;20202;-52
2022/09/20 12:29:53;;;;;;;0.77;0.60;;;18.60;49.80;;;;;;4876183;29;20686;-45
2022/09/20 12:32:57;;;;;;;0.35;0.35;;;18.60;49.80;;;;;;4875920;29;20697;-43
2022/09/20 12:36:01;;;;;;;0.63;0.57;;;18.60;49.80;;;;;;4876330;29;20630;-44
2022/09/20 12:38:49;;;;;;;0.75;0.60;;;18.50;49.70;;;;;;4876103;29;20209;-43
2022/09/20 12:41:21;;;;;;;0.50;0.50;;;18.50;49.70;;;;;;4876067;29;20218;-43
2022/09/20 12:44:05;;;;;;;0.43;0.43;;;18.50;49.80;;;;;;4875562;29;20201;-41
2022/09/20 12:46:52;;;;;;;0.50;0.50;;;18.50;49.90;;;;;;4876386;29;20201;-38
2022/09/20 12:52:57;;;;;;;0.47;0.47;;;18.50;49.90;;;;;;4876175;29;20232;-42
2022/09/20 12:55:59;;;;;;;0.50;0.50;;;18.40;49.90;;;;;;4876372;29;20223;-45
2022/09/20 12:58:36;;;;;;;0.50;0.50;;;18.40;49.90;;;;;;4853452;29;20252;-42
2022/09/20 13:01:31;;;;;;;0.57;0.50;;;18.40;50.00;;;;;;4876281;29;20204;-38
2022/09/20 13:04:37;;;;;;;0.77;0.60;;;18.40;49.90;;;;;;4874409;29;20208;-48
2022/09/20 13:07:35;;;;;;;0.50;0.50;;;18.40;50.00;;;;;;4876365;29;20229;-39
2022/09/20 13:10:17;;;;;;;0.57;0.50;;;18.40;50.00;;;;;;4875697;29;20201;-53
2022/09/20 13:12:49;;;;;;;0.70;0.63;;;18.30;49.90;;;;;;4875402;29;20233;-54
2022/09/20 13:15:21;;;;;;;0.70;0.45;;;18.30;49.90;;;;;;4876308;29;20205;-47
2022/09/20 13:17:55;;;;;;;0.50;0.50;;;18.30;50.00;;;;;;4876052;29;20257;-39
2022/09/20 13:20:29;;;;;;;0.43;0.43;;;18.30;50.10;;;;;;4876174;29;20201;-47
2022/09/20 13:23:06;;;;;;;0.50;0.50;;;18.20;50.00;;;;;;4876202;29;20631;-38
2022/09/20 13:25:39;;;;;;;0.70;0.60;;;18.20;50.10;;;;;;4876188;29;20280;-36
2022/09/20 13:28:17;;;;;;;0.90;0.65;;;18.20;50.10;;;;;;4875682;29;20229;-38
2022/09/20 13:30:48;;;;;;;0.82;0.55;;;18.20;50.10;;;;;;4875856;29;20209;-46
2022/09/20 13:33:22;;;;;;;1.58;0.70;;;18.20;50.10;;;;;;4876167;29;20237;-50
2022/09/20 13:35:55;;;;;;;0.98;0.60;;;18.20;50.00;;;;;;4876093;29;20205;-56
2022/09/20 13:38:33;;;;;;;0.43;0.43;;;18.20;50.10;;;;;;4875637;29;20232;-41
2022/09/20 13:41:08;;;;;;;0.50;0.50;;;18.20;50.10;;;;;;4875195;29;20560;-47
2022/09/20 13:43:42;;;;;;;0.63;0.60;;;18.10;50.00;;;;;;4874897;29;20205;-46
2022/09/20 13:46:15;;;;;;;0.50;0.50;;;18.10;50.00;;;;;;4875685;29;20650;-38
2022/09/20 13:48:48;;;;;;;0.77;0.60;;;18.10;50.00;;;;;;4875746;29;20228;-48
2022/09/20 13:51:21;;;;;;;0.95;0.65;;;18.10;50.10;;;;;;4876048;29;20205;-42
2022/09/20 13:53:54;;;;;;;1.08;0.65;;;18.10;50.20;;;;;;4875321;29;20205;-46
2022/09/20 13:56:29;;;;;;;1.75;0.47;;;18.00;50.20;;;;;;4875598;29;20201;-42
2022/09/20 13:59:05;;;;;;;0.52;0.52;;;18.00;50.20;;;;;;4879058;29;20296;-43
2022/09/20 14:01:38;;;;;;;0.60;0.60;;;18.00;50.20;;;;;;4879825;29;20227;-49
2022/09/20 14:04:15;;;;;;;0.85;0.70;;;18.00;50.20;;;;;;4879702;29;20384;-42
2022/09/20 14:06:46;;;;;;;0.50;0.50;;;18.00;50.20;;;;;;4880150;29;20197;-42